Flight Number: EUR2060 Duration: 9:00
Departure: St.Maarten (TNCM) at 21:30 Distance: 4007 Nm
Arrival: Munich Int'l (EDDM) at 06:30 Equipment: B777

Weather Information
Juliana Airport, Saint Maarten, Netherlands Antilles (TNCM) 18-03N 063-07W 9M Aug 17, 2018 - 05:00 PM EDT / 2018.08.17 2100 UTC
Wind: from the E (090 degrees) at 12 MPH (10 KT) (direction variable):0
Visibility: greater than 7 mile(s):0
Sky conditions: partly cloudy Temperature: 86 F (30 C) Heat index: 93.4 F (34.1 C):1 Dew Point: 73 F (23 C) Relative Humidity: 66% Pressure (altimeter): 30.06 in. Hg (1017 hPa)
ob: TNCM 172100Z 09010KT 050V130 9999 SCT018 30/23 Q1018 A3006 NOSIG RMK LGT HZ cycle: 21
Sunrise: 09:57 Sunset: 22:34 (UTC)

Munchen, Germany (EDDM) 48-21N 011-47E Aug 17, 2018 - 04:50 PM EDT / 2018.08.17 2050 UTC
Wind: from the E (090 degrees) at 3 MPH (3 KT):0
Visibility: greater than 7 mile(s):0 Temperature: 60 F (16 C) Dew Point: 57 F (14 C) Relative Humidity: 87% Pressure (altimeter): 30.03 in. Hg (1017 hPa)
ob: EDDM 172050Z 09003KT CAVOK 16/14 Q1017 NOSIG cycle: 21
Sunrise: 04:14 Sunset: 18:19 (UTC)

TAF:2018/08/17 18:27 TAF EDDM 171700Z 1718/1824 VRB03KT CAVOK BECMG 1718/1720 27005KT BECMG 1812/1815 33005KT PROB30 TEMPO 1815/1820 TSRA BKN050CB

Previous Pireps for this route
Date Aircraft Flight time Fuel used Landing rate On time
2013-02-21B7779.25231760No
2013-10-01B7779.021821500No
2013-11-03B7779.251822860No
2015-05-08B7779.041734000No
2015-06-23B7778.512001140No
2015-08-22B77710.29121897-173No
(pireps marked green are flown by you)

Route map